sensor_id;sensor_type;location;lat;lon;timestamp;temperature;humidity
41928;DHT22;27616;51.420;6.788;2023-12-14T00:00:43;7.80;99.90
41928;DHT22;27616;51.420;6.788;2023-12-14T00:03:09;7.80;99.90
41928;DHT22;27616;51.420;6.788;2023-12-14T00:05:34;7.80;99.90
41928;DHT22;27616;51.420;6.788;2023-12-14T00:08:01;7.70;99.90
41928;DHT22;27616;51.420;6.788;2023-12-14T00:10:26;7.70;99.90
41928;DHT22;27616;51.420;6.788;2023-12-14T00:12:52;7.70;99.90
41928;DHT22;27616;51.420;6.788;2023-12-14T00:15:19;7.70;99.90
41928;DHT22;27616;51.420;6.788;2023-12-14T00:17:45;7.60;99.90
41928;DHT22;27616;51.420;6.788;2023-12-14T00:20:11;7.50;99.90
41928;DHT22;27616;51.420;6.788;2023-12-14T00:22:36;7.50;99.90
41928;DHT22;27616;51.420;6.788;2023-12-14T00:25:04;7.50;99.90
41928;DHT22;27616;51.420;6.788;2023-12-14T00:27:30;7.50;99.90
41928;DHT22;27616;51.420;6.788;2023-12-14T00:29:55;7.50;99.90
41928;DHT22;27616;51.420;6.788;2023-12-14T00:32:21;7.40;99.90
41928;DHT22;27616;51.420;6.788;2023-12-14T00:34:47;7.40;99.90
41928;DHT22;27616;51.420;6.788;2023-12-14T00:37:12;7.40;99.90
41928;DHT22;27616;51.420;6.788;2023-12-14T00:39:38;7.40;99.90
41928;DHT22;27616;51.420;6.788;2023-12-14T00:42:04;7.30;99.90
41928;DHT22;27616;51.420;6.788;2023-12-14T00:44:29;7.30;99.90
41928;DHT22;27616;51.420;6.788;2023-12-14T00:46:55;7.20;99.90
41928;DHT22;27616;51.420;6.788;2023-12-14T00:49:20;7.10;99.90
41928;DHT22;27616;51.420;6.788;2023-12-14T00:51:46;7.20;99.90
41928;DHT22;27616;51.420;6.788;2023-12-14T00:54:11;7.20;99.90
41928;DHT22;27616;51.420;6.788;2023-12-14T00:56:37;7.20;99.90
41928;DHT22;27616;51.420;6.788;2023-12-14T00:59:03;7.20;99.90
41928;DHT22;27616;51.420;6.788;2023-12-14T01:01:28;7.20;99.90
41928;DHT22;27616;51.420;6.788;2023-12-14T01:03:54;7.10;99.90
41928;DHT22;27616;51.420;6.788;2023-12-14T01:06:20;7.10;99.90
41928;DHT22;27616;51.420;6.788;2023-12-14T01:08:45;7.10;99.90
41928;DHT22;27616;51.420;6.788;2023-12-14T01:11:11;7.10;99.90
41928;DHT22;27616;51.420;6.788;2023-12-14T01:13:37;7.10;99.90
41928;DHT22;27616;51.420;6.788;2023-12-14T01:16:02;7.20;99.90
41928;DHT22;27616;51.420;6.788;2023-12-14T01:18:28;7.10;99.90
41928;DHT22;27616;51.420;6.788;2023-12-14T01:20:53;7.10;99.90
41928;DHT22;27616;51.420;6.788;2023-12-14T01:23:19;7.10;99.90
41928;DHT22;27616;51.420;6.788;2023-12-14T01:25:45;7.10;99.90
41928;DHT22;27616;51.420;6.788;2023-12-14T01:28:10;7.10;99.90
41928;DHT22;27616;51.420;6.788;2023-12-14T01:30:36;7.00;99.90
41928;DHT22;27616;51.420;6.788;2023-12-14T01:33:01;7.00;99.90
41928;DHT22;27616;51.420;6.788;2023-12-14T01:35:27;7.00;99.90
41928;DHT22;27616;51.420;6.788;2023-12-14T01:37:55;7.00;99.90
41928;DHT22;27616;51.420;6.788;2023-12-14T01:40:21;6.90;99.90
41928;DHT22;27616;51.420;6.788;2023-12-14T01:42:46;6.90;99.90
41928;DHT22;27616;51.420;6.788;2023-12-14T01:45:12;6.90;99.90
41928;DHT22;27616;51.420;6.788;2023-12-14T01:47:42;6.90;99.90
41928;DHT22;27616;51.420;6.788;2023-12-14T01:50:07;6.80;99.90
41928;DHT22;27616;51.420;6.788;2023-12-14T01:52:33;6.80;99.90
41928;DHT22;27616;51.420;6.788;2023-12-14T01:54:59;6.90;99.90
41928;DHT22;27616;51.420;6.788;2023-12-14T01:57:24;6.80;99.90
41928;DHT22;27616;51.420;6.788;2023-12-14T01:59:50;6.80;99.90
41928;DHT22;27616;51.420;6.788;2023-12-14T02:02:16;6.80;99.90
41928;DHT22;27616;51.420;6.788;2023-12-14T02:04:42;6.80;99.90
41928;DHT22;27616;51.420;6.788;2023-12-14T02:07:07;6.70;99.90
41928;DHT22;27616;51.420;6.788;2023-12-14T02:09:33;6.70;99.90
41928;DHT22;27616;51.420;6.788;2023-12-14T02:11:58;6.70;99.90
41928;DHT22;27616;51.420;6.788;2023-12-14T02:14:24;6.70;99.90
41928;DHT22;27616;51.420;6.788;2023-12-14T02:16:50;6.60;99.90
41928;DHT22;27616;51.420;6.788;2023-12-14T02:19:15;6.70;99.90
41928;DHT22;27616;51.420;6.788;2023-12-14T02:21:41;6.60;99.90
41928;DHT22;27616;51.420;6.788;2023-12-14T02:24:07;6.60;99.90
41928;DHT22;27616;51.420;6.788;2023-12-14T02:26:32;6.60;99.90
41928;DHT22;27616;51.420;6.788;2023-12-14T02:28:58;6.60;99.90
41928;DHT22;27616;51.420;6.788;2023-12-14T02:31:24;6.60;99.90
41928;DHT22;27616;51.420;6.788;2023-12-14T02:33:49;6.50;99.90
41928;DHT22;27616;51.420;6.788;2023-12-14T02:36:15;6.50;99.90
41928;DHT22;27616;51.420;6.788;2023-12-14T02:38:40;6.40;99.90
41928;DHT22;27616;51.420;6.788;2023-12-14T02:41:06;6.50;99.90
41928;DHT22;27616;51.420;6.788;2023-12-14T02:43:32;6.40;99.90
41928;DHT22;27616;51.420;6.788;2023-12-14T02:45:58;6.40;99.90
41928;DHT22;27616;51.420;6.788;2023-12-14T02:48:28;6.40;99.90
41928;DHT22;27616;51.420;6.788;2023-12-14T02:50:55;6.30;99.90
41928;DHT22;27616;51.420;6.788;2023-12-14T02:53:20;6.30;99.90
41928;DHT22;27616;51.420;6.788;2023-12-14T02:55:46;6.20;99.90
41928;DHT22;27616;51.420;6.788;2023-12-14T02:58:11;6.20;99.90
41928;DHT22;27616;51.420;6.788;2023-12-14T03:00:37;6.20;99.90
41928;DHT22;27616;51.420;6.788;2023-12-14T03:03:03;6.20;99.90
41928;DHT22;27616;51.420;6.788;2023-12-14T03:05:28;6.10;99.90
41928;DHT22;27616;51.420;6.788;2023-12-14T03:07:54;6.10;99.90
41928;DHT22;27616;51.420;6.788;2023-12-14T03:10:20;6.20;99.90
41928;DHT22;27616;51.420;6.788;2023-12-14T03:12:45;6.20;99.90
41928;DHT22;27616;51.420;6.788;2023-12-14T03:15:11;6.20;99.90
41928;DHT22;27616;51.420;6.788;2023-12-14T03:17:36;6.20;99.90
41928;DHT22;27616;51.420;6.788;2023-12-14T03:20:03;6.20;99.90
41928;DHT22;27616;51.420;6.788;2023-12-14T03:22:30;6.10;99.90
41928;DHT22;27616;51.420;6.788;2023-12-14T03:24:56;6.20;99.90
41928;DHT22;27616;51.420;6.788;2023-12-14T03:27:22;6.10;99.90
41928;DHT22;27616;51.420;6.788;2023-12-14T03:29:48;6.10;99.90
41928;DHT22;27616;51.420;6.788;2023-12-14T03:32:14;6.20;99.90
41928;DHT22;27616;51.420;6.788;2023-12-14T03:34:40;6.10;99.90
41928;DHT22;27616;51.420;6.788;2023-12-14T03:37:06;6.10;99.90
41928;DHT22;27616;51.420;6.788;2023-12-14T03:39:32;6.10;99.90
41928;DHT22;27616;51.420;6.788;2023-12-14T03:41:57;6.10;99.90
41928;DHT22;27616;51.420;6.788;2023-12-14T03:44:23;6.10;99.90
41928;DHT22;27616;51.420;6.788;2023-12-14T03:46:50;6.00;99.90
41928;DHT22;27616;51.420;6.788;2023-12-14T03:49:15;6.00;99.90
41928;DHT22;27616;51.420;6.788;2023-12-14T03:51:41;6.00;99.90
41928;DHT22;27616;51.420;6.788;2023-12-14T03:54:06;6.00;99.90
41928;DHT22;27616;51.420;6.788;2023-12-14T03:56:32;6.00;99.90
41928;DHT22;27616;51.420;6.788;2023-12-14T03:58:58;6.10;99.90
41928;DHT22;27616;51.420;6.788;2023-12-14T04:01:24;6.00;99.90
41928;DHT22;27616;51.420;6.788;2023-12-14T04:03:49;6.00;99.90
41928;DHT22;27616;51.420;6.788;2023-12-14T04:06:15;6.00;99.90
41928;DHT22;27616;51.420;6.788;2023-12-14T04:08:41;5.90;99.90
41928;DHT22;27616;51.420;6.788;2023-12-14T04:11:07;5.90;99.90
41928;DHT22;27616;51.420;6.788;2023-12-14T04:13:34;5.90;99.90
41928;DHT22;27616;51.420;6.788;2023-12-14T04:16:01;5.90;99.90
41928;DHT22;27616;51.420;6.788;2023-12-14T04:18:26;5.80;99.90
41928;DHT22;27616;51.420;6.788;2023-12-14T04:20:52;5.80;99.90
41928;DHT22;27616;51.420;6.788;2023-12-14T04:23:18;5.80;99.90
41928;DHT22;27616;51.420;6.788;2023-12-14T04:25:44;5.80;99.90
41928;DHT22;27616;51.420;6.788;2023-12-14T04:28:10;5.80;99.90
41928;DHT22;27616;51.420;6.788;2023-12-14T04:30:35;5.70;99.90
41928;DHT22;27616;51.420;6.788;2023-12-14T04:33:01;5.80;99.90
41928;DHT22;27616;51.420;6.788;2023-12-14T04:35:26;5.70;99.90
41928;DHT22;27616;51.420;6.788;2023-12-14T04:37:52;5.80;99.90
41928;DHT22;27616;51.420;6.788;2023-12-14T04:40:18;5.80;99.90
41928;DHT22;27616;51.420;6.788;2023-12-14T04:42:44;5.80;99.90
41928;DHT22;27616;51.420;6.788;2023-12-14T04:45:10;5.80;99.90
41928;DHT22;27616;51.420;6.788;2023-12-14T04:47:36;5.80;99.90
41928;DHT22;27616;51.420;6.788;2023-12-14T04:50:02;5.80;99.90
41928;DHT22;27616;51.420;6.788;2023-12-14T04:52:28;5.80;99.90
41928;DHT22;27616;51.420;6.788;2023-12-14T04:54:53;5.80;99.90
41928;DHT22;27616;51.420;6.788;2023-12-14T04:57:19;5.70;99.90
41928;DHT22;27616;51.420;6.788;2023-12-14T04:59:45;5.70;99.90
41928;DHT22;27616;51.420;6.788;2023-12-14T05:02:10;5.70;99.90
41928;DHT22;27616;51.420;6.788;2023-12-14T05:04:36;5.70;99.90
41928;DHT22;27616;51.420;6.788;2023-12-14T05:07:01;5.70;99.90
41928;DHT22;27616;51.420;6.788;2023-12-14T05:09:27;5.70;99.90
41928;DHT22;27616;51.420;6.788;2023-12-14T05:11:53;5.70;99.90
41928;DHT22;27616;51.420;6.788;2023-12-14T05:14:19;5.60;99.90
41928;DHT22;27616;51.420;6.788;2023-12-14T05:16:44;5.70;99.90
41928;DHT22;27616;51.420;6.788;2023-12-14T05:19:10;5.60;99.90
41928;DHT22;27616;51.420;6.788;2023-12-14T05:21:36;5.70;99.90
41928;DHT22;27616;51.420;6.788;2023-12-14T05:24:01;5.70;99.90
41928;DHT22;27616;51.420;6.788;2023-12-14T05:26:28;5.70;99.90
41928;DHT22;27616;51.420;6.788;2023-12-14T05:28:53;5.70;99.90
41928;DHT22;27616;51.420;6.788;2023-12-14T05:31:19;5.60;99.90
41928;DHT22;27616;51.420;6.788;2023-12-14T05:33:45;5.60;99.90
41928;DHT22;27616;51.420;6.788;2023-12-14T05:36:10;5.60;99.90
41928;DHT22;27616;51.420;6.788;2023-12-14T05:38:38;5.60;99.90
41928;DHT22;27616;51.420;6.788;2023-12-14T05:41:03;5.60;99.90
41928;DHT22;27616;51.420;6.788;2023-12-14T05:43:29;5.60;99.90
41928;DHT22;27616;51.420;6.788;2023-12-14T05:45:55;5.60;99.90
41928;DHT22;27616;51.420;6.788;2023-12-14T05:48:20;5.60;99.90
41928;DHT22;27616;51.420;6.788;2023-12-14T05:50:46;5.60;99.90
41928;DHT22;27616;51.420;6.788;2023-12-14T05:53:11;5.60;99.90
41928;DHT22;27616;51.420;6.788;2023-12-14T05:55:37;5.60;99.90
41928;DHT22;27616;51.420;6.788;2023-12-14T05:58:05;5.50;99.90
41928;DHT22;27616;51.420;6.788;2023-12-14T06:00:31;5.60;99.90
41928;DHT22;27616;51.420;6.788;2023-12-14T06:02:57;5.60;99.90
41928;DHT22;27616;51.420;6.788;2023-12-14T06:05:23;5.60;99.90
41928;DHT22;27616;51.420;6.788;2023-12-14T06:07:48;5.60;99.90
41928;DHT22;27616;51.420;6.788;2023-12-14T06:10:14;5.60;99.90
41928;DHT22;27616;51.420;6.788;2023-12-14T06:12:39;5.60;99.90
41928;DHT22;27616;51.420;6.788;2023-12-14T06:15:06;5.60;99.90
41928;DHT22;27616;51.420;6.788;2023-12-14T06:17:31;5.50;99.90
41928;DHT22;27616;51.420;6.788;2023-12-14T06:19:59;5.60;99.90
41928;DHT22;27616;51.420;6.788;2023-12-14T06:22:25;5.60;99.90
41928;DHT22;27616;51.420;6.788;2023-12-14T06:24:51;5.50;99.90
41928;DHT22;27616;51.420;6.788;2023-12-14T06:27:17;5.60;99.90
41928;DHT22;27616;51.420;6.788;2023-12-14T06:29:42;5.50;99.90
41928;DHT22;27616;51.420;6.788;2023-12-14T06:32:08;5.60;99.90
41928;DHT22;27616;51.420;6.788;2023-12-14T06:34:34;5.60;99.90
41928;DHT22;27616;51.420;6.788;2023-12-14T06:36:59;5.60;99.90
41928;DHT22;27616;51.420;6.788;2023-12-14T06:39:25;5.60;99.90
41928;DHT22;27616;51.420;6.788;2023-12-14T06:41:54;5.50;99.90
41928;DHT22;27616;51.420;6.788;2023-12-14T06:44:20;5.60;99.90
41928;DHT22;27616;51.420;6.788;2023-12-14T06:46:45;5.60;99.90
41928;DHT22;27616;51.420;6.788;2023-12-14T06:49:11;5.60;99.90
41928;DHT22;27616;51.420;6.788;2023-12-14T06:51:36;5.60;99.90
41928;DHT22;27616;51.420;6.788;2023-12-14T06:54:02;5.60;99.90
41928;DHT22;27616;51.420;6.788;2023-12-14T06:56:28;5.60;99.90
41928;DHT22;27616;51.420;6.788;2023-12-14T06:58:53;5.60;99.90
41928;DHT22;27616;51.420;6.788;2023-12-14T07:01:19;5.50;99.90
41928;DHT22;27616;51.420;6.788;2023-12-14T07:03:45;5.50;99.90
41928;DHT22;27616;51.420;6.788;2023-12-14T07:06:14;5.50;99.90
41928;DHT22;27616;51.420;6.788;2023-12-14T07:08:41;5.50;99.90
41928;DHT22;27616;51.420;6.788;2023-12-14T07:11:07;5.50;99.90
41928;DHT22;27616;51.420;6.788;2023-12-14T07:13:33;5.40;99.90
41928;DHT22;27616;51.420;6.788;2023-12-14T07:16:05;5.40;99.90
41928;DHT22;27616;51.420;6.788;2023-12-14T07:18:31;5.40;99.90
41928;DHT22;27616;51.420;6.788;2023-12-14T07:20:56;5.40;99.90
41928;DHT22;27616;51.420;6.788;2023-12-14T07:23:22;5.30;99.90
41928;DHT22;27616;51.420;6.788;2023-12-14T07:25:48;5.30;99.90
41928;DHT22;27616;51.420;6.788;2023-12-14T07:28:13;5.30;99.90
41928;DHT22;27616;51.420;6.788;2023-12-14T07:30:39;5.40;99.90
41928;DHT22;27616;51.420;6.788;2023-12-14T07:33:04;5.40;99.90
41928;DHT22;27616;51.420;6.788;2023-12-14T07:35:30;5.40;99.90
41928;DHT22;27616;51.420;6.788;2023-12-14T07:37:55;5.30;99.90
41928;DHT22;27616;51.420;6.788;2023-12-14T07:40:21;5.40;99.90
41928;DHT22;27616;51.420;6.788;2023-12-14T07:42:47;5.50;99.90
41928;DHT22;27616;51.420;6.788;2023-12-14T07:45:12;5.40;99.90
41928;DHT22;27616;51.420;6.788;2023-12-14T07:47:38;5.40;99.90
41928;DHT22;27616;51.420;6.788;2023-12-14T07:50:04;5.40;99.90
41928;DHT22;27616;51.420;6.788;2023-12-14T07:52:30;5.30;99.90
41928;DHT22;27616;51.420;6.788;2023-12-14T07:54:55;5.20;99.90
41928;DHT22;27616;51.420;6.788;2023-12-14T07:57:21;5.20;99.90
41928;DHT22;27616;51.420;6.788;2023-12-14T07:59:46;5.20;99.90
41928;DHT22;27616;51.420;6.788;2023-12-14T08:02:12;5.20;99.90
41928;DHT22;27616;51.420;6.788;2023-12-14T08:04:38;5.20;99.90
41928;DHT22;27616;51.420;6.788;2023-12-14T08:07:04;5.20;99.90
41928;DHT22;27616;51.420;6.788;2023-12-14T08:09:29;5.20;99.90
41928;DHT22;27616;51.420;6.788;2023-12-14T08:11:55;5.20;99.90
41928;DHT22;27616;51.420;6.788;2023-12-14T08:14:21;5.20;99.90
41928;DHT22;27616;51.420;6.788;2023-12-14T08:16:46;5.20;99.90
41928;DHT22;27616;51.420;6.788;2023-12-14T08:19:12;5.20;99.90
41928;DHT22;27616;51.420;6.788;2023-12-14T08:21:37;5.20;99.90
41928;DHT22;27616;51.420;6.788;2023-12-14T08:24:04;5.20;99.90
41928;DHT22;27616;51.420;6.788;2023-12-14T08:26:29;5.30;99.90
41928;DHT22;27616;51.420;6.788;2023-12-14T08:28:55;5.20;99.90
41928;DHT22;27616;51.420;6.788;2023-12-14T08:31:20;5.20;99.90
41928;DHT22;27616;51.420;6.788;2023-12-14T08:33:46;5.20;99.90
41928;DHT22;27616;51.420;6.788;2023-12-14T08:36:15;5.20;99.90
41928;DHT22;27616;51.420;6.788;2023-12-14T08:38:42;5.20;99.90
41928;DHT22;27616;51.420;6.788;2023-12-14T08:41:07;5.20;99.90
41928;DHT22;27616;51.420;6.788;2023-12-14T08:43:33;5.30;99.90
41928;DHT22;27616;51.420;6.788;2023-12-14T08:45:58;5.30;99.90
41928;DHT22;27616;51.420;6.788;2023-12-14T08:48:24;5.30;99.90
41928;DHT22;27616;51.420;6.788;2023-12-14T08:50:50;5.30;99.90
41928;DHT22;27616;51.420;6.788;2023-12-14T08:53:18;5.30;99.90
41928;DHT22;27616;51.420;6.788;2023-12-14T08:55:44;5.20;99.90
41928;DHT22;27616;51.420;6.788;2023-12-14T08:58:09;5.20;99.90
41928;DHT22;27616;51.420;6.788;2023-12-14T09:00:35;5.20;99.90
41928;DHT22;27616;51.420;6.788;2023-12-14T09:03:00;5.20;99.90
41928;DHT22;27616;51.420;6.788;2023-12-14T09:05:26;5.30;99.90
41928;DHT22;27616;51.420;6.788;2023-12-14T09:07:52;5.30;99.90
41928;DHT22;27616;51.420;6.788;2023-12-14T09:10:22;5.40;99.90
41928;DHT22;27616;51.420;6.788;2023-12-14T09:12:48;5.40;99.90
41928;DHT22;27616;51.420;6.788;2023-12-14T09:15:13;5.40;99.90
41928;DHT22;27616;51.420;6.788;2023-12-14T09:17:41;5.40;99.90
41928;DHT22;27616;51.420;6.788;2023-12-14T09:20:08;5.40;99.90
41928;DHT22;27616;51.420;6.788;2023-12-14T09:22:34;5.40;99.90
41928;DHT22;27616;51.420;6.788;2023-12-14T09:24:59;5.40;99.90
41928;DHT22;27616;51.420;6.788;2023-12-14T09:27:25;5.40;99.90
41928;DHT22;27616;51.420;6.788;2023-12-14T09:29:50;5.40;99.90
41928;DHT22;27616;51.420;6.788;2023-12-14T09:32:16;5.40;99.90
41928;DHT22;27616;51.420;6.788;2023-12-14T09:34:44;5.40;99.90
41928;DHT22;27616;51.420;6.788;2023-12-14T09:37:10;5.40;99.90
41928;DHT22;27616;51.420;6.788;2023-12-14T09:39:36;5.40;99.90
41928;DHT22;27616;51.420;6.788;2023-12-14T09:42:03;5.40;99.90
41928;DHT22;27616;51.420;6.788;2023-12-14T09:44:33;5.40;99.90
41928;DHT22;27616;51.420;6.788;2023-12-14T09:47:00;5.40;99.90
41928;DHT22;27616;51.420;6.788;2023-12-14T09:49:29;5.40;99.90
41928;DHT22;27616;51.420;6.788;2023-12-14T09:51:59;5.30;99.90
41928;DHT22;27616;51.420;6.788;2023-12-14T09:54:27;5.40;99.90
41928;DHT22;27616;51.420;6.788;2023-12-14T09:56:53;5.30;99.90
41928;DHT22;27616;51.420;6.788;2023-12-14T09:59:20;5.40;99.90
41928;DHT22;27616;51.420;6.788;2023-12-14T10:01:45;5.40;99.90
41928;DHT22;27616;51.420;6.788;2023-12-14T10:04:19;5.50;99.90
41928;DHT22;27616;51.420;6.788;2023-12-14T10:06:47;5.40;99.90
41928;DHT22;27616;51.420;6.788;2023-12-14T10:09:13;5.40;99.90
41928;DHT22;27616;51.420;6.788;2023-12-14T10:11:41;5.50;99.90
41928;DHT22;27616;51.420;6.788;2023-12-14T10:14:27;5.50;99.90
41928;DHT22;27616;51.420;6.788;2023-12-14T10:16:55;5.50;99.90
41928;DHT22;27616;51.420;6.788;2023-12-14T10:19:20;5.50;99.90
41928;DHT22;27616;51.420;6.788;2023-12-14T10:21:47;5.60;99.90
41928;DHT22;27616;51.420;6.788;2023-12-14T10:24:14;5.50;99.90
41928;DHT22;27616;51.420;6.788;2023-12-14T10:26:40;5.50;99.90
41928;DHT22;27616;51.420;6.788;2023-12-14T10:29:06;5.50;99.90
41928;DHT22;27616;51.420;6.788;2023-12-14T10:31:33;5.60;99.90
41928;DHT22;27616;51.420;6.788;2023-12-14T10:34:03;5.50;99.90
41928;DHT22;27616;51.420;6.788;2023-12-14T10:36:29;5.50;99.90
41928;DHT22;27616;51.420;6.788;2023-12-14T10:38:58;5.50;99.90
41928;DHT22;27616;51.420;6.788;2023-12-14T10:41:24;5.50;99.90
41928;DHT22;27616;51.420;6.788;2023-12-14T10:43:56;5.50;99.90
41928;DHT22;27616;51.420;6.788;2023-12-14T10:46:25;5.50;99.90
41928;DHT22;27616;51.420;6.788;2023-12-14T10:48:52;5.60;99.90
41928;DHT22;27616;51.420;6.788;2023-12-14T10:51:22;5.60;99.90
41928;DHT22;27616;51.420;6.788;2023-12-14T10:53:49;5.60;99.90
41928;DHT22;27616;51.420;6.788;2023-12-14T10:56:16;5.60;99.90
41928;DHT22;27616;51.420;6.788;2023-12-14T11:01:16;5.50;99.90
41928;DHT22;27616;51.420;6.788;2023-12-14T11:03:43;5.50;99.90
41928;DHT22;27616;51.420;6.788;2023-12-14T11:08:56;5.50;99.90
41928;DHT22;27616;51.420;6.788;2023-12-14T11:11:22;5.50;99.90
41928;DHT22;27616;51.420;6.788;2023-12-14T11:13:53;5.40;99.90
41928;DHT22;27616;51.420;6.788;2023-12-14T11:16:26;5.40;99.90
41928;DHT22;27616;51.420;6.788;2023-12-14T11:21:48;5.50;99.90
41928;DHT22;27616;51.420;6.788;2023-12-14T11:24:13;5.50;99.90
41928;DHT22;27616;51.420;6.788;2023-12-14T11:26:40;5.50;99.90
41928;DHT22;27616;51.420;6.788;2023-12-14T11:29:06;5.60;99.90
41928;DHT22;27616;51.420;6.788;2023-12-14T11:31:32;5.50;99.90
41928;DHT22;27616;51.420;6.788;2023-12-14T11:33:59;5.50;99.90
41928;DHT22;27616;51.420;6.788;2023-12-14T11:36:29;5.60;99.90
41928;DHT22;27616;51.420;6.788;2023-12-14T11:38:55;5.50;99.90
41928;DHT22;27616;51.420;6.788;2023-12-14T11:41:21;5.60;99.90
41928;DHT22;27616;51.420;6.788;2023-12-14T11:43:47;5.50;99.90
41928;DHT22;27616;51.420;6.788;2023-12-14T11:46:13;5.50;99.90
41928;DHT22;27616;51.420;6.788;2023-12-14T11:48:39;5.50;99.90
41928;DHT22;27616;51.420;6.788;2023-12-14T11:51:05;5.40;99.90
41928;DHT22;27616;51.420;6.788;2023-12-14T11:53:31;5.40;99.90
41928;DHT22;27616;51.420;6.788;2023-12-14T11:55:59;5.40;99.90
41928;DHT22;27616;51.420;6.788;2023-12-14T11:58:28;5.40;99.90
41928;DHT22;27616;51.420;6.788;2023-12-14T12:00:53;5.40;99.90
41928;DHT22;27616;51.420;6.788;2023-12-14T12:03:20;5.30;99.90
41928;DHT22;27616;51.420;6.788;2023-12-14T12:05:48;5.30;99.90
41928;DHT22;27616;51.420;6.788;2023-12-14T12:08:15;5.30;99.90
41928;DHT22;27616;51.420;6.788;2023-12-14T12:10:42;5.40;99.90
41928;DHT22;27616;51.420;6.788;2023-12-14T12:13:14;5.30;99.90
41928;DHT22;27616;51.420;6.788;2023-12-14T12:15:39;5.30;99.90
41928;DHT22;27616;51.420;6.788;2023-12-14T12:18:14;5.30;99.90
41928;DHT22;27616;51.420;6.788;2023-12-14T12:20:40;5.30;99.90
41928;DHT22;27616;51.420;6.788;2023-12-14T12:23:06;5.30;99.90
41928;DHT22;27616;51.420;6.788;2023-12-14T12:25:32;5.30;99.90
41928;DHT22;27616;51.420;6.788;2023-12-14T12:27:59;5.20;99.90
41928;DHT22;27616;51.420;6.788;2023-12-14T12:30:26;5.20;99.90
41928;DHT22;27616;51.420;6.788;2023-12-14T12:32:51;5.30;99.90
41928;DHT22;27616;51.420;6.788;2023-12-14T12:35:21;5.20;99.90
41928;DHT22;27616;51.420;6.788;2023-12-14T12:37:47;5.30;99.90
41928;DHT22;27616;51.420;6.788;2023-12-14T12:40:22;5.30;99.90
41928;DHT22;27616;51.420;6.788;2023-12-14T12:42:49;5.20;99.90
41928;DHT22;27616;51.420;6.788;2023-12-14T12:45:15;5.20;99.90
41928;DHT22;27616;51.420;6.788;2023-12-14T12:47:43;5.20;99.90
41928;DHT22;27616;51.420;6.788;2023-12-14T12:50:09;5.20;99.90
41928;DHT22;27616;51.420;6.788;2023-12-14T12:52:35;5.20;99.90
41928;DHT22;27616;51.420;6.788;2023-12-14T12:55:01;5.30;99.90
41928;DHT22;27616;51.420;6.788;2023-12-14T12:57:27;5.30;99.90
41928;DHT22;27616;51.420;6.788;2023-12-14T12:59:52;5.30;99.90
41928;DHT22;27616;51.420;6.788;2023-12-14T13:02:18;5.30;99.90
41928;DHT22;27616;51.420;6.788;2023-12-14T13:04:44;5.30;99.90
41928;DHT22;27616;51.420;6.788;2023-12-14T13:07:09;5.30;99.90
41928;DHT22;27616;51.420;6.788;2023-12-14T13:09:35;5.30;99.90
41928;DHT22;27616;51.420;6.788;2023-12-14T13:12:00;5.30;99.90
41928;DHT22;27616;51.420;6.788;2023-12-14T13:14:26;5.30;99.90
41928;DHT22;27616;51.420;6.788;2023-12-14T13:16:52;5.30;99.90
41928;DHT22;27616;51.420;6.788;2023-12-14T13:19:17;5.30;99.90
41928;DHT22;27616;51.420;6.788;2023-12-14T13:21:43;5.30;99.90
41928;DHT22;27616;51.420;6.788;2023-12-14T13:24:08;5.30;99.90
41928;DHT22;27616;51.420;6.788;2023-12-14T13:26:34;5.30;99.90
41928;DHT22;27616;51.420;6.788;2023-12-14T13:29:00;5.20;99.90
41928;DHT22;27616;51.420;6.788;2023-12-14T13:31:25;5.20;99.90
41928;DHT22;27616;51.420;6.788;2023-12-14T13:33:51;5.20;99.90
41928;DHT22;27616;51.420;6.788;2023-12-14T13:36:17;5.20;99.90
41928;DHT22;27616;51.420;6.788;2023-12-14T13:38:44;5.20;99.90
41928;DHT22;27616;51.420;6.788;2023-12-14T13:41:10;5.20;99.90
41928;DHT22;27616;51.420;6.788;2023-12-14T13:43:36;5.20;99.90
41928;DHT22;27616;51.420;6.788;2023-12-14T13:46:02;5.10;99.90
41928;DHT22;27616;51.420;6.788;2023-12-14T13:48:28;5.20;99.90
41928;DHT22;27616;51.420;6.788;2023-12-14T13:50:54;5.30;99.90
41928;DHT22;27616;51.420;6.788;2023-12-14T13:53:21;5.20;99.90
41928;DHT22;27616;51.420;6.788;2023-12-14T13:55:46;5.20;99.90
41928;DHT22;27616;51.420;6.788;2023-12-14T13:58:12;5.10;99.90
41928;DHT22;27616;51.420;6.788;2023-12-14T14:00:38;5.10;99.90
41928;DHT22;27616;51.420;6.788;2023-12-14T14:03:04;5.10;99.90
41928;DHT22;27616;51.420;6.788;2023-12-14T14:05:32;5.00;99.90
41928;DHT22;27616;51.420;6.788;2023-12-14T14:07:58;5.00;99.90
41928;DHT22;27616;51.420;6.788;2023-12-14T14:10:24;4.90;99.90
41928;DHT22;27616;51.420;6.788;2023-12-14T14:12:50;4.90;99.90
41928;DHT22;27616;51.420;6.788;2023-12-14T14:15:16;4.90;99.90
41928;DHT22;27616;51.420;6.788;2023-12-14T14:17:41;4.80;99.90
41928;DHT22;27616;51.420;6.788;2023-12-14T14:20:07;4.90;99.90
41928;DHT22;27616;51.420;6.788;2023-12-14T14:22:36;4.90;99.90
41928;DHT22;27616;51.420;6.788;2023-12-14T14:25:02;4.90;99.90
41928;DHT22;27616;51.420;6.788;2023-12-14T14:27:28;4.90;99.90
41928;DHT22;27616;51.420;6.788;2023-12-14T14:29:53;4.90;99.90
41928;DHT22;27616;51.420;6.788;2023-12-14T14:32:21;4.90;99.90
41928;DHT22;27616;51.420;6.788;2023-12-14T14:34:47;4.90;99.90
41928;DHT22;27616;51.420;6.788;2023-12-14T14:37:13;4.90;99.90
41928;DHT22;27616;51.420;6.788;2023-12-14T14:39:38;4.90;99.90
41928;DHT22;27616;51.420;6.788;2023-12-14T14:42:05;4.90;99.90
41928;DHT22;27616;51.420;6.788;2023-12-14T14:44:31;5.00;99.90
41928;DHT22;27616;51.420;6.788;2023-12-14T14:46:57;5.00;99.90
41928;DHT22;27616;51.420;6.788;2023-12-14T14:49:22;5.00;99.90
41928;DHT22;27616;51.420;6.788;2023-12-14T14:51:48;5.00;99.90
41928;DHT22;27616;51.420;6.788;2023-12-14T14:54:13;4.90;99.90
41928;DHT22;27616;51.420;6.788;2023-12-14T14:56:40;4.90;99.90
41928;DHT22;27616;51.420;6.788;2023-12-14T14:59:06;4.90;99.90
41928;DHT22;27616;51.420;6.788;2023-12-14T15:01:34;4.90;99.90
41928;DHT22;27616;51.420;6.788;2023-12-14T15:03:59;4.90;99.90
41928;DHT22;27616;51.420;6.788;2023-12-14T15:06:25;4.90;99.90
41928;DHT22;27616;51.420;6.788;2023-12-14T15:08:51;4.90;99.90
41928;DHT22;27616;51.420;6.788;2023-12-14T15:11:16;4.90;99.90
41928;DHT22;27616;51.420;6.788;2023-12-14T15:13:42;4.90;99.90
41928;DHT22;27616;51.420;6.788;2023-12-14T15:16:08;4.90;99.90
41928;DHT22;27616;51.420;6.788;2023-12-14T15:18:33;4.90;99.90
41928;DHT22;27616;51.420;6.788;2023-12-14T15:21:07;4.90;99.90
41928;DHT22;27616;51.420;6.788;2023-12-14T15:23:32;4.90;99.90
41928;DHT22;27616;51.420;6.788;2023-12-14T15:25:58;4.90;99.90
41928;DHT22;27616;51.420;6.788;2023-12-14T15:28:23;4.90;99.90
41928;DHT22;27616;51.420;6.788;2023-12-14T15:30:49;4.90;99.90
41928;DHT22;27616;51.420;6.788;2023-12-14T15:33:15;5.00;99.90
41928;DHT22;27616;51.420;6.788;2023-12-14T15:35:40;5.00;99.90
41928;DHT22;27616;51.420;6.788;2023-12-14T15:38:06;5.00;99.90
41928;DHT22;27616;51.420;6.788;2023-12-14T15:40:31;5.00;99.90
41928;DHT22;27616;51.420;6.788;2023-12-14T15:42:57;5.00;99.90
41928;DHT22;27616;51.420;6.788;2023-12-14T15:45:23;5.00;99.90